createdAt,value
2019-05-19T00:03:34.764Z,13.00
2019-05-19T00:06:16.894Z,12.90
2019-05-19T00:08:58.355Z,12.90
2019-05-19T00:11:40.277Z,12.80
2019-05-19T00:14:22.195Z,12.80
2019-05-19T00:16:52.086Z,12.80
2019-05-19T00:19:26.738Z,12.80
2019-05-19T00:22:32.153Z,12.80
2019-05-19T00:25:02.330Z,12.70
2019-05-19T00:27:51.591Z,12.80
2019-05-19T00:30:40.972Z,12.70
2019-05-19T00:33:29.929Z,12.70
2019-05-19T00:36:21.532Z,12.70
2019-05-19T00:38:52.338Z,12.70
2019-05-19T00:41:41.784Z,12.70
2019-05-19T00:44:11.576Z,12.80
2019-05-19T00:47:00.583Z,12.80
2019-05-19T00:53:03.252Z,12.70
2019-05-19T00:59:01.761Z,12.70
2019-05-19T01:01:31.582Z,12.60
2019-05-19T01:04:21.979Z,12.70
2019-05-19T01:07:11.143Z,12.70
2019-05-19T01:10:00.267Z,12.70
2019-05-19T01:12:49.265Z,12.70
2019-05-19T01:15:38.552Z,12.70
2019-05-19T01:18:27.842Z,12.70
2019-05-19T01:21:37.417Z,12.80
2019-05-19T01:27:40.063Z,12.80
2019-05-19T01:30:29.123Z,12.90
2019-05-19T01:32:59.235Z,12.90
2019-05-19T01:35:50.674Z,12.80
2019-05-19T01:38:39.899Z,12.80
2019-05-19T01:41:29.579Z,12.70
2019-05-19T01:47:32.414Z,12.60
2019-05-19T01:53:35.668Z,12.50
2019-05-19T01:56:24.662Z,12.50
2019-05-19T01:59:14.166Z,12.50
2019-05-19T02:01:56.587Z,12.50
2019-05-19T02:04:38.212Z,12.50
2019-05-19T02:07:21.525Z,12.50
2019-05-19T02:10:03.263Z,12.50
2019-05-19T02:12:45.464Z,12.50
2019-05-19T02:18:49.858Z,12.50
2019-05-19T02:21:19.747Z,12.50
2019-05-19T02:24:08.743Z,12.50
2019-05-19T02:26:57.939Z,12.40
2019-05-19T02:29:46.883Z,12.40
2019-05-19T02:32:55.292Z,12.30
2019-05-19T02:35:44.332Z,12.30
2019-05-19T02:38:33.564Z,12.30
2019-05-19T02:41:22.663Z,12.20
2019-05-19T02:44:11.975Z,12.20
2019-05-19T02:46:42.313Z,12.30
2019-05-19T02:49:51.849Z,12.30
2019-05-19T02:52:41.676Z,12.30
2019-05-19T02:55:31.203Z,12.30
2019-05-19T02:58:12.990Z,12.30
2019-05-19T03:00:55.452Z,12.20
2019-05-19T03:06:08.721Z,12.30
2019-05-19T03:08:57.659Z,12.30
2019-05-19T03:11:27.607Z,12.30
2019-05-19T03:13:57.435Z,12.20
2019-05-19T03:16:27.658Z,12.30
2019-05-19T03:19:16.649Z,12.30
2019-05-19T03:21:46.916Z,12.30
2019-05-19T03:24:17.416Z,12.30
2019-05-19T03:26:47.336Z,12.30
2019-05-19T03:36:04.007Z,12.30
2019-05-19T03:38:53.031Z,12.20
2019-05-19T03:41:42.067Z,12.30
2019-05-19T03:44:12.045Z,12.40
2019-05-19T03:53:20.920Z,12.40
2019-05-19T03:56:02.456Z,12.40
2019-05-19T03:58:44.149Z,12.30
2019-05-19T04:01:14.020Z,12.20
2019-05-19T04:03:43.964Z,12.30
2019-05-19T04:06:33.115Z,12.20
2019-05-19T04:09:22.408Z,12.20
2019-05-19T04:11:52.315Z,12.20
2019-05-19T04:14:48.924Z,12.30
2019-05-19T04:17:37.986Z,12.30
2019-05-19T04:20:27.156Z,12.30
2019-05-19T04:23:16.527Z,12.30
2019-05-19T04:26:05.541Z,12.30
2019-05-19T04:28:53.885Z,12.30
2019-05-19T04:31:42.873Z,12.20
2019-05-19T04:34:33.720Z,12.30
2019-05-19T04:37:23.255Z,12.30
2019-05-19T04:39:53.331Z,12.40
2019-05-19T04:42:23.023Z,12.40
2019-05-19T04:44:52.840Z,12.50
2019-05-19T04:47:22.586Z,12.50
2019-05-19T04:50:11.524Z,12.50
2019-05-19T04:56:19.712Z,12.60
2019-05-19T04:59:27.121Z,12.60
2019-05-19T05:02:35.424Z,12.60
2019-05-19T05:05:24.474Z,12.60
2019-05-19T05:11:27.277Z,12.70
2019-05-19T05:14:16.324Z,12.80
2019-05-19T05:17:05.352Z,12.80
2019-05-19T05:19:54.538Z,12.80
2019-05-19T05:22:43.642Z,12.80
2019-05-19T05:25:32.740Z,12.80
2019-05-19T05:28:14.316Z,12.90
2019-05-19T05:30:55.898Z,12.80
2019-05-19T05:33:37.711Z,12.80
2019-05-19T05:36:18.986Z,12.90
2019-05-19T05:38:48.969Z,12.80
2019-05-19T05:41:18.751Z,12.80
2019-05-19T05:44:07.844Z,12.80
2019-05-19T05:46:37.856Z,12.70
2019-05-19T05:52:41.147Z,12.70
2019-05-19T05:55:30.634Z,12.70
2019-05-19T05:58:20.156Z,12.70
2019-05-19T06:01:09.154Z,12.80
2019-05-19T06:03:39.483Z,12.80
2019-05-19T06:09:39.007Z,12.90
2019-05-19T06:12:27.931Z,12.90
2019-05-19T06:15:17.480Z,12.90
2019-05-19T06:18:25.978Z,13.00
2019-05-19T06:21:14.874Z,13.10
2019-05-19T06:24:04.149Z,13.10
2019-05-19T06:26:45.978Z,13.00
2019-05-19T06:29:28.184Z,13.00
2019-05-19T06:35:32.169Z,13.10
2019-05-19T06:38:02.528Z,13.10
2019-05-19T06:47:14.898Z,13.30
2019-05-19T06:49:44.658Z,13.30
2019-05-19T06:52:14.642Z,13.50
2019-05-19T06:55:03.699Z,13.60
2019-05-19T06:57:53.306Z,13.40
2019-05-19T07:03:50.316Z,13.30
2019-05-19T07:06:39.672Z,13.40
2019-05-19T07:09:29.329Z,13.50
2019-05-19T07:12:18.286Z,13.50
2019-05-19T07:17:56.156Z,13.50
2019-05-19T07:20:45.479Z,13.70
2019-05-19T07:23:55.385Z,13.70
2019-05-19T07:26:44.514Z,13.90
2019-05-19T07:29:33.700Z,14.00
2019-05-19T07:32:22.757Z,14.00
2019-05-19T07:35:11.823Z,14.10
2019-05-19T07:38:01.080Z,14.20
2019-05-19T07:40:30.791Z,14.30
2019-05-19T07:43:19.812Z,14.30
2019-05-19T07:46:08.856Z,14.20
2019-05-19T07:55:25.012Z,14.60
2019-05-19T07:58:14.191Z,14.60
2019-05-19T08:01:03.229Z,14.60
2019-05-19T08:03:52.164Z,14.60
2019-05-19T08:06:41.156Z,14.50
2019-05-19T08:09:30.065Z,14.50
2019-05-19T08:12:19.097Z,14.60
2019-05-19T08:15:08.238Z,14.70
2019-05-19T08:17:50.365Z,14.80
2019-05-19T08:20:32.163Z,14.90
2019-05-19T08:23:13.965Z,15.00
2019-05-19T08:25:56.271Z,15.20
2019-05-19T08:28:41.683Z,15.20
2019-05-19T08:31:24.158Z,15.10
2019-05-19T08:34:06.337Z,15.20
2019-05-19T08:36:48.685Z,15.30
2019-05-19T08:42:13.668Z,15.60
2019-05-19T08:44:56.254Z,15.70
2019-05-19T08:47:41.334Z,15.70
2019-05-19T08:50:23.174Z,15.90
2019-05-19T08:53:23.973Z,16.00
2019-05-19T08:56:05.951Z,15.80
2019-05-19T08:58:36.014Z,15.70
2019-05-19T09:01:25.387Z,15.60
2019-05-19T09:04:14.395Z,15.70
2019-05-19T09:07:04.869Z,16.00
2019-05-19T09:09:56.923Z,16.10
2019-05-19T09:12:39.238Z,16.50
2019-05-19T09:15:24.178Z,16.80
2019-05-19T09:18:05.912Z,16.90
2019-05-19T09:20:47.892Z,16.70
2019-05-19T09:26:31.618Z,16.60
2019-05-19T09:29:01.912Z,16.50
2019-05-19T09:31:51.215Z,16.50
2019-05-19T09:34:40.345Z,16.50
2019-05-19T09:37:29.335Z,16.60
2019-05-19T09:40:18.440Z,16.70
2019-05-19T09:43:07.912Z,16.70
2019-05-19T09:45:56.825Z,16.70
2019-05-19T09:48:46.022Z,16.60
2019-05-19T09:51:35.230Z,16.70
2019-05-19T09:54:24.563Z,16.70
2019-05-19T09:57:13.783Z,16.90
2019-05-19T10:00:02.978Z,17.00
2019-05-19T10:02:51.918Z,17.00
2019-05-19T10:05:33.963Z,17.20
2019-05-19T10:11:07.930Z,17.20
2019-05-19T10:13:37.971Z,16.90
2019-05-19T10:16:08.186Z,17.00
2019-05-19T10:18:57.529Z,17.10
2019-05-19T10:21:46.751Z,17.20
2019-05-19T10:24:35.754Z,17.20
2019-05-19T10:27:24.804Z,17.10
2019-05-19T10:30:14.006Z,17.20
2019-05-19T10:32:44.538Z,17.30
2019-05-19T10:35:14.835Z,17.40
2019-05-19T10:38:03.727Z,17.50
2019-05-19T10:40:52.682Z,17.60
2019-05-19T10:43:22.837Z,17.80
2019-05-19T10:46:02.057Z,17.80
2019-05-19T10:48:50.965Z,17.80
2019-05-19T10:51:21.078Z,17.70
2019-05-19T10:54:10.435Z,17.80
2019-05-19T10:56:59.597Z,18.20
2019-05-19T10:59:48.535Z,18.60
2019-05-19T11:02:30.967Z,18.40
2019-05-19T11:05:12.778Z,18.10
2019-05-19T11:07:42.520Z,18.10
2019-05-19T11:10:31.518Z,18.10
2019-05-19T11:13:20.441Z,18.00
2019-05-19T11:16:09.699Z,18.00
2019-05-19T11:18:58.674Z,18.10
2019-05-19T11:21:48.054Z,18.40
2019-05-19T11:24:18.099Z,18.50
2019-05-19T11:26:47.960Z,19.00
2019-05-19T11:29:17.933Z,19.40
2019-05-19T11:32:06.880Z,19.40
2019-05-19T11:34:55.799Z,19.20
2019-05-19T11:37:44.988Z,19.10
2019-05-19T11:40:34.178Z,18.90
2019-05-19T11:43:03.967Z,19.00
2019-05-19T11:45:34.022Z,18.70
2019-05-19T11:48:23.161Z,18.90
2019-05-19T11:51:12.452Z,19.50
2019-05-19T11:54:01.593Z,19.90
2019-05-19T11:56:31.730Z,20.00
2019-05-19T11:59:20.914Z,20.20
2019-05-19T12:02:09.922Z,20.30
2019-05-19T12:04:58.850Z,20.10
2019-05-19T12:07:48.069Z,20.00
2019-05-19T12:10:18.025Z,20.00
2019-05-19T12:12:48.566Z,19.90
2019-05-19T12:20:55.362Z,19.60
2019-05-19T12:23:44.647Z,20.00
2019-05-19T12:29:47.897Z,20.20
2019-05-19T12:32:36.924Z,19.90
2019-05-19T12:38:41.840Z,20.10
2019-05-19T12:41:31.539Z,20.30
2019-05-19T12:44:20.503Z,20.50
2019-05-19T12:47:09.671Z,20.50
2019-05-19T12:49:58.674Z,20.50
2019-05-19T12:52:40.809Z,20.50
2019-05-19T12:55:11.039Z,20.00
2019-05-19T12:58:00.219Z,19.80
2019-05-19T13:00:30.114Z,19.80
2019-05-19T13:03:19.390Z,19.70
2019-05-19T13:06:08.655Z,19.60
2019-05-19T13:08:57.916Z,19.40
2019-05-19T13:11:46.845Z,19.10
2019-05-19T13:14:35.734Z,19.00
2019-05-19T13:17:25.236Z,18.90
2019-05-19T13:20:14.350Z,18.70
2019-05-19T13:23:03.352Z,18.60
2019-05-19T13:25:52.350Z,18.50
2019-05-19T13:28:41.322Z,18.60
2019-05-19T13:31:30.290Z,18.40
2019-05-19T13:34:19.297Z,18.40
2019-05-19T13:37:08.269Z,18.50
2019-05-19T13:39:57.431Z,18.40
2019-05-19T13:42:46.429Z,18.40
2019-05-19T13:45:35.439Z,18.40
2019-05-19T13:48:24.698Z,18.40
2019-05-19T13:51:13.687Z,18.40
2019-05-19T13:57:16.764Z,18.60
2019-05-19T14:00:06.091Z,18.50
2019-05-19T14:02:55.030Z,18.40
2019-05-19T14:05:44.207Z,18.30
2019-05-19T14:08:33.298Z,18.30
2019-05-19T14:11:22.730Z,18.30
2019-05-19T14:14:11.730Z,18.20
2019-05-19T14:17:00.934Z,18.30
2019-05-19T14:19:49.916Z,18.40
2019-05-19T14:25:33.622Z,18.40
2019-05-19T14:28:22.591Z,18.60
2019-05-19T14:31:11.763Z,18.70
2019-05-19T14:37:15.125Z,18.70
2019-05-19T14:40:04.482Z,18.80
2019-05-19T14:52:01.879Z,19.30
2019-05-19T14:54:43.122Z,19.40
2019-05-19T14:57:25.137Z,19.60
2019-05-19T15:00:06.933Z,20.00
2019-05-19T15:02:48.690Z,20.20
2019-05-19T15:05:30.054Z,20.20
2019-05-19T15:11:28.962Z,20.30
2019-05-19T15:14:17.937Z,19.90
2019-05-19T15:17:06.850Z,19.70
2019-05-19T15:23:10.177Z,19.40
2019-05-19T15:25:59.351Z,19.20
2019-05-19T15:28:48.278Z,19.20
2019-05-19T15:31:18.071Z,19.20
2019-05-19T15:33:48.029Z,19.30
2019-05-19T15:39:14.530Z,19.40
2019-05-19T15:44:38.979Z,19.40
2019-05-19T15:47:20.759Z,19.30
2019-05-19T15:50:02.542Z,19.20
2019-05-19T15:52:44.741Z,19.10
2019-05-19T15:55:26.821Z,19.10
2019-05-19T15:58:16.430Z,19.10
2019-05-19T16:00:53.378Z,19.10
2019-05-19T16:03:36.068Z,19.10
2019-05-19T16:06:17.937Z,19.10
2019-05-19T16:08:59.171Z,19.20
2019-05-19T16:11:41.512Z,19.30
2019-05-19T16:14:23.226Z,19.30
2019-05-19T16:19:48.768Z,19.40
2019-05-19T16:22:31.115Z,19.10
2019-05-19T16:25:13.007Z,18.80
2019-05-19T16:27:54.767Z,18.50
2019-05-19T16:30:36.842Z,18.20
2019-05-19T16:33:18.374Z,17.90
2019-05-19T16:36:00.475Z,17.60
2019-05-19T16:38:42.051Z,17.50
2019-05-19T16:41:23.273Z,17.30
2019-05-19T16:44:05.570Z,17.10
2019-05-19T16:46:47.419Z,16.90
2019-05-19T16:49:17.649Z,16.80
2019-05-19T16:51:47.968Z,16.70
2019-05-19T16:54:22.981Z,16.40
2019-05-19T16:56:53.015Z,16.20
2019-05-19T16:59:23.076Z,16.00
2019-05-19T17:01:52.882Z,16.10
2019-05-19T17:04:22.617Z,16.00
2019-05-19T17:06:52.462Z,16.00
2019-05-19T17:09:22.434Z,16.00
2019-05-19T17:11:52.269Z,16.00
2019-05-19T17:14:22.015Z,16.00
2019-05-19T17:16:52.120Z,16.00
2019-05-19T17:19:21.875Z,15.90
2019-05-19T17:21:51.850Z,15.90
2019-05-19T17:24:21.638Z,16.00
2019-05-19T17:26:51.443Z,16.00
2019-05-19T17:29:21.123Z,16.10
2019-05-19T17:32:04.004Z,16.10
2019-05-19T17:34:22.498Z,16.00
2019-05-19T17:36:52.211Z,15.90
2019-05-19T17:39:22.202Z,15.90
2019-05-19T17:41:52.307Z,15.80
2019-05-19T17:44:22.055Z,15.70
2019-05-19T17:46:51.789Z,15.60
2019-05-19T17:49:21.473Z,15.60
2019-05-19T17:51:51.321Z,15.60
2019-05-19T17:54:21.520Z,15.70
2019-05-19T17:56:52.902Z,15.70
2019-05-19T17:59:24.468Z,15.60
2019-05-19T18:01:54.248Z,15.60
2019-05-19T18:04:24.263Z,15.60
2019-05-19T18:06:54.407Z,15.50
2019-05-19T18:09:24.143Z,15.40
2019-05-19T18:11:54.498Z,15.50
2019-05-19T18:14:24.473Z,15.60
2019-05-19T18:16:54.423Z,15.50
2019-05-19T18:19:24.559Z,15.60
2019-05-19T18:21:54.302Z,15.70
2019-05-19T18:24:24.403Z,15.60
2019-05-19T18:26:54.255Z,15.60
2019-05-19T18:29:30.906Z,15.50
2019-05-19T18:31:55.443Z,15.50
2019-05-19T18:34:25.510Z,15.50
2019-05-19T18:36:55.318Z,15.60
2019-05-19T18:39:25.033Z,15.70
2019-05-19T18:41:54.978Z,15.70
2019-05-19T18:44:25.371Z,15.70
2019-05-19T18:46:56.259Z,15.60
2019-05-19T18:49:26.236Z,15.40
2019-05-19T18:51:56.368Z,15.30
2019-05-19T18:54:26.375Z,15.20
2019-05-19T18:56:56.349Z,15.20
2019-05-19T18:59:26.039Z,15.20
2019-05-19T19:01:56.077Z,15.20
2019-05-19T19:04:25.930Z,15.20
2019-05-19T19:06:55.703Z,15.10
2019-05-19T19:09:25.467Z,15.10
2019-05-19T19:11:55.481Z,15.10
2019-05-19T19:14:27.745Z,15.10
2019-05-19T19:16:57.695Z,15.10
2019-05-19T19:19:27.553Z,15.00
2019-05-19T19:21:57.565Z,15.00
2019-05-19T19:24:27.399Z,15.00
2019-05-19T19:26:57.195Z,14.90
2019-05-19T19:29:26.973Z,14.90
2019-05-19T19:31:57.142Z,14.80
2019-05-19T19:34:26.898Z,14.80
2019-05-19T19:36:56.640Z,14.90
2019-05-19T19:39:26.369Z,15.00
2019-05-19T19:41:56.286Z,15.00
2019-05-19T19:44:26.028Z,15.10
2019-05-19T19:46:55.789Z,15.00
2019-05-19T19:49:25.530Z,15.00
2019-05-19T19:51:55.391Z,15.10
2019-05-19T19:54:25.174Z,15.10
2019-05-19T19:56:55.253Z,15.10
2019-05-19T19:59:25.342Z,15.20
2019-05-19T20:01:55.509Z,15.10
2019-05-19T20:04:25.666Z,15.10
2019-05-19T20:06:55.763Z,15.20
2019-05-19T20:09:25.738Z,15.20
2019-05-19T20:11:55.520Z,15.20
2019-05-19T20:14:27.140Z,15.00
2019-05-19T20:17:01.570Z,14.90
2019-05-19T20:19:33.981Z,14.90
2019-05-19T20:22:04.178Z,14.90
2019-05-19T20:24:34.299Z,14.70
2019-05-19T20:27:04.063Z,14.60
2019-05-19T20:29:33.850Z,14.50
2019-05-19T20:32:03.598Z,14.40
2019-05-19T20:34:33.407Z,14.40
2019-05-19T20:37:06.426Z,14.40
2019-05-19T20:39:36.166Z,14.30
2019-05-19T20:42:06.457Z,14.40
2019-05-19T20:44:36.523Z,14.50
2019-05-19T20:47:06.244Z,14.60
2019-05-19T20:49:36.304Z,14.60
2019-05-19T20:52:06.116Z,14.50
2019-05-19T20:54:36.069Z,14.20
2019-05-19T20:57:06.143Z,14.00
2019-05-19T20:59:35.864Z,13.80
2019-05-19T21:02:05.547Z,13.60
2019-05-19T21:04:38.477Z,13.60
2019-05-19T21:07:09.478Z,13.40
2019-05-19T21:09:39.462Z,13.30
2019-05-19T21:12:09.497Z,13.30
2019-05-19T21:14:39.715Z,13.20
2019-05-19T21:17:11.330Z,13.10
2019-05-19T21:19:41.349Z,13.10
2019-05-19T21:25:40.786Z,13.00
2019-05-19T21:28:10.842Z,13.00
2019-05-19T21:30:40.712Z,13.10
2019-05-19T21:33:10.870Z,13.00
2019-05-19T21:35:40.646Z,12.90
2019-05-19T21:38:10.437Z,12.90
2019-05-19T21:40:41.826Z,12.90
2019-05-19T21:43:11.571Z,12.90
2019-05-19T21:45:44.100Z,12.80
2019-05-19T21:48:13.910Z,12.80
2019-05-19T21:50:43.966Z,12.80
2019-05-19T21:53:16.770Z,12.70
2019-05-19T21:55:46.535Z,12.80
2019-05-19T21:58:16.391Z,12.80
2019-05-19T22:00:46.349Z,12.70
2019-05-19T22:03:16.602Z,12.70
2019-05-19T22:05:53.432Z,12.80
2019-05-19T22:08:18.640Z,12.80
2019-05-19T22:10:48.726Z,12.80
2019-05-19T22:13:18.690Z,13.00
2019-05-19T22:15:48.634Z,13.10
2019-05-19T22:18:18.884Z,13.20
2019-05-19T22:20:48.937Z,13.10
2019-05-19T22:23:19.042Z,12.90
2019-05-19T22:25:52.038Z,12.90
2019-05-19T22:28:21.991Z,12.90
2019-05-19T22:30:52.068Z,12.90
2019-05-19T22:33:22.096Z,12.90
2019-05-19T22:35:53.382Z,13.10
2019-05-19T22:38:23.188Z,13.10
2019-05-19T22:40:53.059Z,13.00
2019-05-19T22:43:25.561Z,12.90
2019-05-19T22:45:55.237Z,12.90
2019-05-19T22:48:25.038Z,12.80
2019-05-19T22:50:54.903Z,12.90
2019-05-19T22:53:26.018Z,12.80
2019-05-19T22:55:55.784Z,12.90
2019-05-19T22:58:28.412Z,12.80
2019-05-19T23:00:58.291Z,12.80
2019-05-19T23:03:28.011Z,12.90
2019-05-19T23:05:57.984Z,12.80
2019-05-19T23:08:28.019Z,12.80
2019-05-19T23:10:57.698Z,12.80
2019-05-19T23:13:27.894Z,12.80
2019-05-19T23:15:57.841Z,12.80
2019-05-19T23:18:27.574Z,12.80
2019-05-19T23:20:57.469Z,12.90
2019-05-19T23:23:27.259Z,12.80
2019-05-19T23:25:58.453Z,12.70
2019-05-19T23:28:28.227Z,12.70
2019-05-19T23:30:57.993Z,12.70
2019-05-19T23:33:27.755Z,12.60
2019-05-19T23:35:57.613Z,12.70
2019-05-19T23:38:27.883Z,12.60
2019-05-19T23:40:57.582Z,12.70
2019-05-19T23:43:27.501Z,12.60
2019-05-19T23:45:57.361Z,12.70
2019-05-19T23:48:27.514Z,12.70
2019-05-19T23:50:57.282Z,12.70
2019-05-19T23:53:27.057Z,12.70
2019-05-19T23:55:57.587Z,12.80
2019-05-19T23:58:28.348Z,12.70
